Time;durP1;ratioP1;P1;durP2;ratioP2;P2;SDS_P1;SDS_P2;PMS_P1;PMS_P2;Temp;Humidity;BMP_temperature;BMP_pressure;BME280_temperature;BME280_humidity;BME280_pressure;Samples;Min_cycle;Max_cycle;Signal;HPM_P1;HPM_P2
2024/04/10 00:01:59;;;;;;;;;14.00;14.00;;;;;12.35;100.00;99247.47;6263890;20;2498335;-44
2024/04/10 00:04:26;;;;;;;;;17.00;17.00;;;;;12.96;100.00;99251.69;6269305;20;2500696;-45
2024/04/10 00:06:53;;;;;;;;;19.50;17.00;;;;;12.64;100.00;99243.44;6270249;20;2829460;-45
2024/04/10 00:09:20;;;;;;;;;19.50;16.00;;;;;13.06;100.00;99245.56;6270637;20;2494066;-44
2024/04/10 00:11:48;;;;;;;;;15.00;14.67;;;;;12.69;100.00;99249.31;6268129;20;3544160;-43
2024/04/10 00:14:15;;;;;;;;;15.67;15.67;;;;;12.71;100.00;99243.78;6270439;20;3556563;-45
2024/04/10 00:16:42;;;;;;;;;16.50;16.50;;;;;12.60;100.00;99244.63;6266285;20;2496142;-46
2024/04/10 00:19:08;;;;;;;;;19.00;19.00;;;;;12.41;100.00;99250.56;6267971;20;2487781;-49
2024/04/10 00:21:35;;;;;;;;;15.50;14.00;;;;;12.37;100.00;99250.91;6269298;20;2491928;-47
2024/04/10 00:24:03;;;;;;;;;17.00;16.00;;;;;12.23;100.00;99254.66;6271064;20;2636834;-47
2024/04/10 00:26:30;;;;;;;;;16.50;16.50;;;;;12.17;100.00;99255.13;6303052;20;2820204;-47
2024/04/10 00:28:57;;;;;;;;;14.00;14.00;;;;;12.22;100.00;99247.56;6274924;20;2812753;-46
2024/04/10 00:31:24;;;;;;;;;15.00;15.00;;;;;12.50;100.00;99257.06;6273197;20;2812834;-48
2024/04/10 00:33:51;;;;;;;;;16.00;15.00;;;;;12.46;100.00;99253.78;6275826;20;3552389;-45
2024/04/10 00:36:20;;;;;;;;;18.00;15.33;;;;;12.47;100.00;99246.53;6306491;20;3558675;-45
2024/04/10 00:38:47;;;;;;;;;14.67;14.67;;;;;12.34;100.00;99256.53;6272089;20;3534688;-46
2024/04/10 00:41:15;;;;;;;;;13.67;13.67;;;;;12.55;100.00;99251.34;6272684;20;3539866;-46
2024/04/10 00:43:42;;;;;;;;;17.67;17.67;;;;;12.30;100.00;99250.53;6273926;20;3559708;-45
2024/04/10 00:46:19;;;;;;;;;17.00;15.00;;;;;12.08;100.00;99251.28;6274067;20;2500281;-45
2024/04/10 00:48:46;;;;;;;;;17.00;17.00;;;;;12.12;100.00;99250.06;6272021;20;2496109;-45
2024/04/10 00:51:22;;;;;;;;;18.50;15.50;;;;;12.42;100.00;99256.81;6273773;20;2483641;-45
2024/04/10 00:53:49;;;;;;;;;14.50;14.50;;;;;12.66;100.00;99278.31;6274351;20;2500313;-44
2024/04/10 00:56:16;;;;;;;;;16.00;16.00;;;;;12.24;100.00;99277.91;6274433;20;2491933;-46
2024/04/10 00:58:46;;;;;;;;;14.00;13.67;;;;;12.53;100.00;99289.16;6273694;20;3531541;-44
2024/04/10 01:01:15;;;;;;;;;16.00;16.00;;;;;12.13;100.00;99270.63;6305831;20;2483627;-44
2024/04/10 01:03:42;;;;;;;;;17.00;16.50;;;;;12.64;100.00;99280.28;6273644;20;2496220;-45
2024/04/10 01:06:10;;;;;;;;;17.00;16.00;;;;;12.76;100.00;99282.00;6273264;20;2483707;-47
2024/04/10 01:08:38;;;;;;;;;14.00;14.00;;;;;12.60;100.00;99284.16;6272628;20;2500465;-44
2024/04/10 01:11:08;;;;;;;;;17.67;17.67;;;;;12.58;100.00;99283.41;6273123;20;3564850;-43
2024/04/10 01:13:35;;;;;;;;;15.00;15.00;;;;;12.06;100.00;99289.06;6272622;20;2491946;-45
2024/04/10 01:16:04;;;;;;;;;16.33;15.33;;;;;12.39;100.00;99286.66;6273415;20;3548212;-46
2024/04/10 01:18:32;;;;;;;;;18.33;14.00;;;;;12.28;100.00;99284.78;6273924;20;3556558;-44
2024/04/10 01:20:59;;;;;;;;;16.00;15.33;;;;;11.76;100.00;99284.06;6275617;20;3558605;-45
2024/04/10 01:23:26;;;;;;;;;17.50;15.50;;;;;11.64;100.00;99274.22;6272052;20;2498171;-44
2024/04/10 01:25:53;;;;;;;;;15.50;14.50;;;;;11.16;100.00;99269.56;6273882;20;2496169;-46
2024/04/10 01:28:19;;;;;;;;;18.50;17.00;;;;;11.31;100.00;99261.38;6273524;20;2496219;-44
2024/04/10 01:30:47;;;;;;;;;16.50;16.50;;;;;11.59;100.00;99261.09;6274117;20;2826307;-46
2024/04/10 01:33:13;;;;;;;;;17.50;15.00;;;;;11.64;100.00;99276.91;6270917;20;2492475;-48
2024/04/10 01:35:40;;;;;;;;;15.00;15.00;;;;;11.38;100.00;99282.34;6274486;20;2500387;-46
2024/04/10 01:38:07;;;;;;;;;17.33;17.33;;;;;11.50;100.00;99280.56;6272611;20;3567037;-47
2024/04/10 01:40:35;;;;;;;;;17.00;15.67;;;;;11.47;100.00;99271.88;6274590;20;3556613;-46
2024/04/10 01:43:02;;;;;;;;;16.00;16.00;;;;;11.92;100.00;99277.59;6272316;20;2498239;-49
2024/04/10 01:45:28;;;;;;;;;17.00;16.00;;;;;12.12;100.00;99278.84;6272832;20;2494125;-44
2024/04/10 01:47:56;;;;;;;;;16.33;16.00;;;;;12.25;100.00;99288.56;6270223;20;3558591;-48
2024/04/10 01:50:23;;;;;;;;;18.50;18.50;;;;;11.61;100.00;99278.00;6272880;20;2839867;-45
2024/04/10 01:52:50;;;;;;;;;20.00;18.00;;;;;11.94;100.00;99281.91;6278617;20;2492011;-44
2024/04/10 01:55:17;;;;;;;;;18.33;18.00;;;;;12.06;100.00;99283.69;6273818;20;3554528;-45
2024/04/10 01:57:45;;;;;;;;;19.00;19.00;;;;;12.49;100.00;99287.69;6273836;20;2821115;-44
2024/04/10 02:00:18;;;;;;;;;18.50;17.00;;;;;12.45;100.00;99291.56;6267119;20;2829562;-44
2024/04/10 02:02:48;;;;;;;;;16.00;16.00;;;;;12.15;100.00;99292.06;6269705;20;2500309;-44
2024/04/10 02:05:15;;;;;;;;;16.00;16.00;;;;;11.97;100.00;99281.66;6269391;20;2823223;-44
2024/04/10 02:07:43;;;;;;;;;18.50;17.00;;;;;11.98;100.00;99282.53;6266859;20;2818041;-44
2024/04/10 02:10:10;;;;;;;;;17.50;17.50;;;;;12.47;100.00;99290.47;6268317;20;2500521;-44
2024/04/10 02:12:37;;;;;;;;;17.50;17.50;;;;;12.47;100.00;99297.69;6270089;20;2835773;-44
2024/04/10 02:15:05;;;;;;;;;20.50;17.00;;;;;12.24;100.00;99291.34;6271441;20;2830485;-45
2024/04/10 02:17:31;;;;;;;;;18.50;18.50;;;;;12.10;100.00;99288.84;6272898;20;2494214;-44
2024/04/10 02:19:58;;;;;;;;;18.00;17.00;;;;;12.20;100.00;99293.41;6270894;20;2487801;-44
2024/04/10 02:22:26;;;;;;;;;22.33;16.67;;;;;12.45;100.00;99296.97;6272119;20;3555445;-46
2024/04/10 02:24:54;;;;;;;;;19.00;17.00;;;;;12.45;100.00;99295.16;6270960;20;2488041;-43
2024/04/10 02:27:21;;;;;;;;;16.33;15.00;;;;;11.87;100.00;99296.75;6273070;20;3545086;-44
2024/04/10 02:29:49;;;;;;;;;18.33;18.33;;;;;11.85;100.00;99299.56;6271865;20;3562768;-44
2024/04/10 02:32:15;;;;;;;;;18.00;17.00;;;;;11.70;100.00;99305.19;6270750;20;2500267;-44
2024/04/10 02:34:44;;;;;;;;;14.00;14.00;;;;;12.05;100.00;99322.31;6272021;20;3532784;-44
2024/04/10 02:37:11;;;;;;;;;15.00;15.00;;;;;11.65;100.00;99314.44;6273427;20;2808661;-44
2024/04/10 02:39:38;;;;;;;;;17.00;15.00;;;;;11.50;100.00;99318.22;6270070;20;2491993;-44
2024/04/10 02:42:05;;;;;;;;;18.33;16.67;;;;;11.07;100.00;99318.56;6275267;20;2827409;-44
2024/04/10 02:44:33;;;;;;;;;22.50;18.00;;;;;11.14;100.00;99330.63;6302465;20;2835853;-46
2024/04/10 02:47:01;;;;;;;;;28.67;26.00;;;;;11.52;100.00;99336.94;6272051;20;3601334;-44
2024/04/10 02:49:29;;;;;;;;;61.33;50.00;;;;;11.39;100.00;99335.09;6300097;20;3609781;-43
2024/04/10 02:51:57;;;;;;;;;53.67;43.00;;;;;11.35;100.00;99343.53;6270121;20;2869144;-43
2024/04/10 02:54:26;;;;;;;;;53.00;43.33;;;;;11.85;100.00;99347.13;6301635;20;3615886;-45
2024/04/10 02:56:55;;;;;;;;;49.00;41.33;;;;;11.69;100.00;99341.09;6302418;20;2856643;-44
2024/04/10 02:59:22;;;;;;;;;41.33;35.33;;;;;11.61;100.00;99344.34;6304001;20;3602364;-46
2024/04/10 03:01:51;;;;;;;;;30.33;29.33;;;;;11.35;100.00;99339.00;6272204;20;2849249;-43
2024/04/10 03:04:18;;;;;;;;;28.67;27.67;;;;;11.57;100.00;99337.47;6305418;20;3592995;-44
2024/04/10 03:06:49;;;;;;;;;25.33;23.33;;;;;11.86;100.00;99354.25;6269838;20;3604407;-47
2024/04/10 03:09:16;;;;;;;;;19.50;18.00;;;;;11.88;100.00;99354.16;6299085;20;2835692;-49
2024/04/10 03:11:44;;;;;;;;;17.50;17.50;;;;;11.77;100.00;99358.44;6268932;20;2824274;-43
2024/04/10 03:14:11;;;;;;;;;21.00;20.00;;;;;11.76;100.00;99361.22;6273162;20;2837850;-42
2024/04/10 03:16:40;;;;;;;;;19.50;19.50;;;;;11.64;100.00;99366.50;6268658;20;2832642;-44
2024/04/10 03:19:08;;;;;;;;;41.00;36.00;;;;;11.42;100.00;99371.66;6267678;20;3618058;-47
2024/04/10 03:21:35;;;;;;;;;21.00;18.00;;;;;11.74;100.00;99369.41;6301440;20;2500270;-44
2024/04/10 03:24:03;;;;;;;;;21.00;18.50;;;;;11.73;100.00;99380.28;6271886;20;2836493;-44
2024/04/10 03:26:31;;;;;;;;;24.00;21.00;;;;;11.40;100.00;99389.72;6272927;20;2844075;-44
2024/04/10 03:28:58;;;;;;;;;27.67;26.33;;;;;11.54;100.00;99388.78;6273043;20;3575369;-44
2024/04/10 03:31:26;;;;;;;;;25.33;23.67;;;;;11.48;100.00;99382.00;6272663;20;3599228;-44
2024/04/10 03:33:53;;;;;;;;;26.33;25.00;;;;;11.25;100.00;99374.69;6274614;20;3602371;-44
2024/04/10 03:36:22;;;;;;;;;23.00;21.00;;;;;11.52;100.00;99372.75;6270316;20;2841181;-45
2024/04/10 03:38:51;;;;;;;;;63.33;51.67;;;;;11.98;100.00;99374.88;6302972;20;3622126;-44
2024/04/10 03:41:20;;;;;;;;;31.00;30.00;;;;;12.06;100.00;99377.88;6271349;20;2853460;-46
2024/04/10 03:43:47;;;;;;;;;17.50;17.50;;;;;12.02;100.00;99380.88;6269112;20;2496129;-44
2024/04/10 03:46:14;;;;;;;;;18.00;17.00;;;;;11.78;100.00;99378.97;6269088;20;2500418;-44
2024/04/10 03:48:41;;;;;;;;;20.00;19.00;;;;;12.29;100.00;99386.09;6268900;20;2830635;-47
2024/04/10 03:51:09;;;;;;;;;18.00;18.00;;;;;12.34;100.00;99386.59;6268754;20;2829893;-43
2024/04/10 03:53:36;;;;;;;;;18.00;18.00;;;;;12.60;100.00;99386.50;6270886;20;2826313;-44
2024/04/10 03:56:04;;;;;;;;;15.00;15.00;;;;;12.67;100.00;99395.88;6271823;20;3540924;-43
2024/04/10 03:58:31;;;;;;;;;19.50;19.50;;;;;12.46;100.00;99380.31;6269825;20;2666951;-45
2024/04/10 04:00:58;;;;;;;;;19.00;18.00;;;;;12.70;100.00;99403.72;6273072;20;2835703;-44
2024/04/10 04:03:25;;;;;;;;;17.00;15.00;;;;;12.71;100.00;99398.19;6272807;20;2500289;-44
2024/04/10 04:05:52;;;;;;;;;15.50;14.00;;;;;13.00;100.00;99397.81;6275886;20;2500523;-44
2024/04/10 04:08:20;;;;;;;;;15.00;15.00;;;;;13.13;100.00;99395.91;6272673;20;3539878;-44
2024/04/10 04:10:48;;;;;;;;;16.33;13.00;;;;;13.16;100.00;99402.91;6276061;20;3541941;-43
2024/04/10 04:13:15;;;;;;;;;15.00;15.00;;;;;13.17;100.00;99407.34;6304508;20;3539956;-43
2024/04/10 04:15:44;;;;;;;;;13.00;13.00;;;;;13.13;100.00;99408.53;6274919;20;3531568;-43
2024/04/10 04:18:11;;;;;;;;;14.33;13.33;;;;;13.22;100.00;99402.44;6274641;20;3525460;-44
2024/04/10 04:20:39;;;;;;;;;17.33;15.00;;;;;13.28;100.00;99412.78;6306535;20;3538920;-44
2024/04/10 04:23:06;;;;;;;;;18.33;14.67;;;;;13.48;100.00;99418.44;6275857;20;3545140;-44
2024/04/10 04:25:35;;;;;;;;;13.33;12.33;;;;;13.43;100.00;99412.56;6308114;20;3524327;-43
2024/04/10 04:28:01;;;;;;;;;15.50;13.50;;;;;13.61;100.00;99416.50;6306302;20;2805615;-43
2024/04/10 04:30:28;;;;;;;;;12.00;12.00;;;;;13.67;100.00;99418.75;6280070;20;2801400;-44
2024/04/10 04:32:55;;;;;;;;;10.67;10.67;;;;;13.76;100.00;99420.69;6275377;20;3514872;-44
2024/04/10 04:35:23;;;;;;;;;10.33;10.33;;;;;13.75;100.00;99429.78;6306101;20;3514893;-44
2024/04/10 04:37:57;;;;;;;;;12.40;9.80;;;;;13.95;100.00;99430.88;6331659;20;2792082;-45
2024/04/10 04:40:32;;;;;;;;;12.00;11.00;;;;;14.00;100.00;99427.84;6276074;20;2789993;-43
2024/04/10 04:43:02;;;;;;;;;9.00;8.00;;;;;14.14;100.00;99437.50;6308549;20;2750283;-43
2024/04/10 04:45:28;;;;;;;;;10.00;9.00;;;;;14.07;100.00;99439.88;6279225;20;2755499;-44
2024/04/10 04:47:55;;;;;;;;;10.00;7.50;;;;;14.25;100.00;99449.19;6277170;20;2775424;-43
2024/04/10 04:50:21;;;;;;;;;6.00;6.00;;;;;14.55;100.00;99454.97;6281679;20;2748191;-44
2024/04/10 04:52:48;;;;;;;;;6.00;6.00;;;;;14.69;100.00;99455.56;6279209;20;2734946;-44
2024/04/10 04:55:15;;;;;;;;;5.00;5.00;;;;;14.79;100.00;99449.38;6280318;20;2742089;-45
2024/04/10 04:57:42;;;;;;;;;5.00;4.00;;;;;15.31;96.28;99458.53;6278540;20;2746138;-44
2024/04/10 05:00:14;;;;;;;;;5.00;5.00;;;;;15.19;95.41;99462.25;6278556;20;2738953;-46
2024/04/10 05:02:44;;;;;;;;;4.00;4.00;;;;;15.45;92.92;99460.91;6281576;20;2745044;-44
2024/04/10 05:05:19;;;;;;;;;5.20;4.00;;;;;15.68;90.85;99463.50;6300790;20;2741909;-44
2024/04/10 05:07:46;;;;;;;;;6.00;5.00;;;;;15.31;92.86;99470.19;6308488;20;2745109;-45
2024/04/10 05:10:14;;;;;;;;;5.00;5.00;;;;;15.94;87.97;99474.78;6281679;20;2734697;-43
2024/04/10 05:12:42;;;;;;;;;6.00;4.00;;;;;15.81;87.96;99472.28;6274890;20;2748184;-44
2024/04/10 05:15:11;;;;;;;;;3.50;3.50;;;;;15.77;87.06;99482.53;6278675;20;2740310;-44
2024/04/10 05:17:43;;;;;;;;;5.00;4.00;;;;;15.57;87.66;99486.91;6276442;20;2756570;-44
2024/04/10 05:20:14;;;;;;;;;3.00;3.00;;;;;15.99;85.18;99483.38;6280869;20;2755571;-45
2024/04/10 05:22:44;;;;;;;;;7.00;4.00;;;;;16.10;83.66;99472.44;6278846;20;2741934;-44
2024/04/10 05:25:12;;;;;;;;;5.50;4.00;;;;;15.98;85.05;99485.22;6279426;20;2743044;-44
2024/04/10 05:27:38;;;;;;;;;3.50;3.00;;;;;16.41;81.97;99481.44;6281865;20;2734659;-44
2024/04/10 05:30:08;;;;;;;;;4.00;4.00;;;;;16.92;78.32;99490.44;6279458;20;2754423;-43
2024/04/10 05:32:39;;;;;;;;;6.00;4.00;;;;;16.96;76.79;99504.59;6279217;20;2747175;-43
2024/04/10 05:35:12;;;;;;;;;4.00;3.00;;;;;16.58;78.20;99506.16;6277281;20;2742991;-44
2024/04/10 05:37:39;;;;;;;;;3.00;3.00;;;;;16.71;78.26;99509.50;6277758;20;2736070;-44
2024/04/10 05:40:16;;;;;;;;;3.50;3.50;;;;;16.55;77.73;99514.56;6278290;20;2753422;-46
2024/04/10 05:42:45;;;;;;;;;4.00;4.00;;;;;17.77;71.71;99524.19;6279341;20;2746178;-47
2024/04/10 05:45:14;;;;;;;;;6.00;5.00;;;;;19.72;63.17;99537.78;6277656;20;2748192;-49
2024/04/10 05:47:48;;;;;;;;;5.00;3.00;;;;;19.92;60.47;99533.03;6277985;20;2751282;-45
2024/04/10 05:50:15;;;;;;;;;3.50;3.50;;;;;18.23;64.16;99529.88;6280578;20;2735732;-43
2024/04/10 05:52:43;;;;;;;;;7.00;4.00;;;;;17.38;69.98;99532.38;6279947;20;2745142;-44
2024/04/10 05:55:10;;;;;;;;;4.50;4.00;;;;;17.50;70.09;99533.06;6276526;20;2754449;-45
2024/04/10 05:57:37;;;;;;;;;4.00;3.00;;;;;18.75;63.62;99542.03;6278868;20;2752458;-44
2024/04/10 06:00:06;;;;;;;;;4.00;4.00;;;;;19.98;58.91;99532.38;6278494;20;2746191;-49
2024/04/10 06:02:38;;;;;;;;;3.00;3.00;;;;;18.89;59.98;99535.22;6332102;20;3444142;-44
2024/04/10 06:05:06;;;;;;;;;2.50;2.50;;;;;17.68;66.58;99535.94;6309256;20;2741988;-43
2024/04/10 06:07:36;;;;;;;;;3.00;3.00;;;;;17.02;68.80;99542.00;6281583;20;2738977;-43
2024/04/10 06:10:04;;;;;;;;;4.00;3.00;;;;;17.09;68.88;99543.19;6282334;20;2722194;-44
2024/04/10 06:12:31;;;;;;;;;3.00;3.00;;;;;17.32;68.22;99546.47;6279245;20;2742032;-44
2024/04/10 06:14:58;;;;;;;;;4.00;2.50;;;;;17.04;68.40;99545.44;6282633;20;2731586;-45
2024/04/10 06:17:27;;;;;;;;;3.00;2.00;;;;;17.23;67.66;99541.91;6283006;20;2724525;-43
2024/04/10 06:19:55;;;;;;;;;2.50;2.50;;;;;17.47;66.40;99549.66;6280404;20;2742539;-43
2024/04/10 06:22:23;;;;;;;;;3.00;3.00;;;;;17.68;65.69;99546.78;6282252;20;2725369;-44
2024/04/10 06:24:51;;;;;;;;;3.00;3.00;;;;;17.75;65.91;99559.66;6280551;20;2735715;-44
2024/04/10 06:27:17;;;;;;;;;8.00;3.00;;;;;17.66;64.93;99559.66;6280533;20;2749244;-44
2024/04/10 06:29:45;;;;;;;;;3.00;2.00;;;;;18.01;63.99;99559.09;6275846;20;2740983;-43
2024/04/10 06:32:13;;;;;;;;;5.50;3.00;;;;;17.90;63.55;99567.38;6277832;20;2746124;-43
2024/04/10 06:34:40;;;;;;;;;3.50;3.00;;;;;18.14;63.17;99573.22;6281232;20;2733725;-46
2024/04/10 06:37:07;;;;;;;;;3.00;3.00;;;;;18.39;61.77;99577.16;6278228;20;2736736;-44
2024/04/10 06:39:35;;;;;;;;;2.50;2.50;;;;;18.45;61.51;99578.44;6278206;20;2747281;-44
2024/04/10 06:42:03;;;;;;;;;6.00;3.20;;;;;18.18;63.17;99585.50;6306134;20;2748469;-43
2024/04/10 06:44:32;;;;;;;;;4.20;2.60;;;;;17.94;64.64;99585.13;6302671;20;2729477;-43
2024/04/10 06:46:59;;;;;;;;;3.00;3.00;;;;;18.17;62.61;99591.09;6309489;20;2737783;-45
2024/04/10 06:49:28;;;;;;;;;2.00;2.00;;;;;18.00;63.05;99592.69;6282319;20;2739910;-44
2024/04/10 06:51:58;;;;;;;;;5.00;2.00;;;;;18.16;61.75;99595.66;6282763;20;2756609;-44
2024/04/10 06:54:25;;;;;;;;;3.50;3.50;;;;;18.24;60.94;99602.25;6281944;20;2748268;-44
2024/04/10 06:56:52;;;;;;;;;4.00;2.00;;;;;18.68;61.29;99610.72;6282282;20;2750283;-45
2024/04/10 06:59:19;;;;;;;;;6.00;3.00;;;;;18.64;61.29;99601.97;6306890;20;2741993;-44
2024/04/10 07:01:46;;;;;;;;;3.00;3.00;;;;;18.97;60.81;99611.50;6282725;20;2734758;-44
2024/04/10 07:04:14;;;;;;;;;2.00;2.00;;;;;18.80;59.41;99615.88;6309002;20;2744208;-44
2024/04/10 07:06:41;;;;;;;;;3.67;2.00;;;;;19.07;58.97;99620.47;6307715;20;2752374;-44
2024/04/10 07:09:09;;;;;;;;;3.00;3.00;;;;;19.26;57.48;99626.81;6307725;20;2735744;-44
2024/04/10 07:11:36;;;;;;;;;2.33;2.33;;;;;19.21;57.29;99623.69;6310729;20;2743198;-44
2024/04/10 07:14:04;;;;;;;;;3.00;3.00;;;;;19.27;57.61;99617.63;6307462;20;2738961;-44
2024/04/10 07:16:32;;;;;;;;;3.00;3.00;;;;;19.35;57.23;99619.59;6307155;20;2735707;-46
2024/04/10 07:18:59;;;;;;;;;2.00;2.00;;;;;19.62;56.50;99625.03;6307749;20;2743071;-44
2024/04/10 07:21:26;;;;;;;;;5.33;2.33;;;;;19.34;56.88;99618.75;6309716;20;2748290;-46
2024/04/10 07:23:55;;;;;;;;;3.00;3.00;;;;;19.23;56.77;99622.53;6330685;20;2737824;-48
2024/04/10 07:26:24;;;;;;;;;4.00;2.00;;;;;19.54;56.80;99619.50;6309250;20;2754563;-46
2024/04/10 07:28:57;;;;;;;;;2.20;1.40;;;;;19.44;56.29;99622.28;6330948;20;2742162;-48
2024/04/10 07:31:29;;;;;;;;;3.00;3.00;;;;;19.20;57.55;99622.00;6330933;20;2741979;-47
2024/04/10 07:33:59;;;;;;;;;3.67;3.00;;;;;19.34;56.38;99626.06;6306031;20;2734876;-50
2024/04/10 07:36:28;;;;;;;;;6.60;3.60;;;;;19.88;55.51;99621.53;6332838;20;2746100;-45
2024/04/10 07:38:57;;;;;;;;;3.33;2.00;;;;;20.26;53.79;99635.88;6281922;20;2749328;-47
2024/04/10 07:41:25;;;;;;;;;3.00;3.00;;;;;20.55;53.40;99635.59;6313966;20;2738868;-49
2024/04/10 07:43:53;;;;;;;;;3.20;2.20;;;;;20.83;51.97;99634.44;6337433;20;2721181;-51
2024/04/10 07:46:22;;;;;;;;;4.20;3.00;;;;;20.30;53.05;99639.97;6336328;20;2729487;-46
2024/04/10 07:48:56;;;;;;;;;6.80;4.80;;;;;20.53;53.42;99637.59;6336509;20;2745111;-45
2024/04/10 07:51:25;;;;;;;;;3.33;3.00;;;;;20.52;52.25;99641.34;6314305;20;2734777;-49
2024/04/10 07:53:52;;;;;;;;;5.00;3.67;;;;;20.07;53.37;99640.47;6312557;20;2750285;-47
2024/04/10 07:56:20;;;;;;;;;3.00;3.00;;;;;20.15;53.09;99651.47;6336335;20;2739911;-46
2024/04/10 07:58:48;;;;;;;;;2.00;2.00;;;;;20.10;53.49;99658.41;6312744;20;2742026;-48
2024/04/10 08:01:17;;;;;;;;;3.80;3.00;;;;;20.54;52.68;99661.19;6336632;20;2737818;-46
2024/04/10 08:03:45;;;;;;;;;4.00;2.00;;;;;21.03;52.26;99666.94;6283685;20;2751358;-48
2024/04/10 08:06:13;;;;;;;;;4.00;4.00;;;;;20.80;52.03;99667.50;6311776;20;2754483;-47
2024/04/10 08:08:42;;;;;;;;;3.00;3.00;;;;;20.73;51.89;99673.75;6311921;20;2750417;-45
2024/04/10 08:11:13;;;;;;;;;3.00;2.00;;;;;21.27;50.97;99678.00;6314392;20;2745185;-44
2024/04/10 08:13:41;;;;;;;;;3.33;3.33;;;;;21.54;50.66;99680.69;6308662;20;2744208;-49
2024/04/10 08:16:12;;;;;;;;;4.00;2.67;;;;;21.39;51.28;99683.19;6315253;20;2728418;-51
2024/04/10 08:18:45;;;;;;;;;2.20;2.20;;;;;21.96;49.60;99686.13;6334262;20;2737796;-52
2024/04/10 08:21:14;;;;;;;;;3.00;2.00;;;;;21.42;50.27;99694.66;6313322;20;2744170;-50
2024/04/10 08:23:44;;;;;;;;;2.40;2.40;;;;;21.20;51.23;99695.22;6333267;20;2755887;-52
2024/04/10 08:26:16;;;;;;;;;5.00;2.43;;;;;21.67;50.77;99687.41;6323374;20;3438856;-53
2024/04/10 08:28:50;;;;;;;;;3.40;2.80;;;;;21.17;50.84;99701.84;6334787;20;2729516;-51
2024/04/10 08:31:24;;;;;;;;;7.00;3.00;;;;;21.57;50.38;99703.09;6336889;20;2736834;-51
2024/04/10 08:33:53;;;;;;;;;5.00;4.00;;;;;21.57;50.18;99703.09;6312117;20;2748297;-49
2024/04/10 08:36:23;;;;;;;;;3.20;3.00;;;;;21.33;50.58;99697.47;6334032;20;2733609;-48
2024/04/10 08:38:51;;;;;;;;;4.00;4.00;;;;;21.41;51.67;99703.03;6310957;20;2751395;-49
2024/04/10 08:41:21;;;;;;;;;4.00;3.00;;;;;21.82;50.62;99705.88;6334637;20;2729552;-50
2024/04/10 08:43:51;;;;;;;;;3.00;3.00;;;;;21.77;49.61;99716.47;6337107;20;2750345;-50
2024/04/10 08:46:21;;;;;;;;;3.00;3.00;;;;;21.43;50.42;99714.63;6303139;20;2737780;-51
2024/04/10 08:48:54;;;;;;;;;2.80;2.80;;;;;22.08;49.54;99719.47;6335747;20;2743015;-51
2024/04/10 08:51:26;;;;;;;;;4.00;3.00;;;;;21.76;50.30;99717.50;6303529;20;2741993;-46
2024/04/10 08:53:56;;;;;;;;;2.67;2.00;;;;;21.63;50.78;99717.97;6280542;20;2756620;-49
2024/04/10 08:56:24;;;;;;;;;4.00;4.00;;;;;21.56;50.78;99725.94;6333774;20;2752410;-47
2024/04/10 08:58:55;;;;;;;;;1.00;0.00;;;;;21.42;51.34;99716.50;6296654;20;1780550;-50
2024/04/10 09:01:27;;;;;;;;;0.00;0.00;;;;;22.00;50.58;99717.56;6336611;20;2740002;-46
2024/04/10 09:03:56;;;;;;;;;5.00;4.60;;;;;22.43;50.10;99726.53;6334501;20;2745097;-50
2024/04/10 09:06:24;;;;;;;;;3.00;3.00;;;;;21.90;49.88;99728.63;6303085;20;2741003;-47
2024/04/10 09:09:06;;;;;;;;;3.00;3.00;;;;;22.66;49.09;99729.44;6279222;20;2752368;-47
2024/04/10 09:11:37;;;;;;;;;2.60;2.60;;;;;22.51;48.80;99728.41;6334372;20;2733746;-52
2024/04/10 09:14:10;;;;;;;;;5.60;4.00;;;;;22.58;48.08;99729.47;6333361;20;2742061;-45
2024/04/10 09:16:39;;;;;;;;;4.60;2.00;;;;;22.45;49.61;99731.84;6336313;20;2752409;-49
2024/04/10 09:19:17;;;;;;;;;6.00;5.00;;;;;22.09;49.22;99735.72;6301633;20;2732673;-47
2024/04/10 09:21:58;;;;;;;;;5.00;3.40;;;;;22.51;49.88;99731.16;6333867;20;2751363;-46
2024/04/10 09:24:29;;;;;;;;;6.20;3.60;;;;;22.78;49.00;99740.94;6302518;20;2749283;-44
2024/04/10 09:26:58;;;;;;;;;2.80;2.80;;;;;22.60;49.13;99737.50;6304160;20;2730490;-48
2024/04/10 09:29:29;;;;;;;;;3.80;3.20;;;;;22.60;48.49;99738.34;6333468;20;2751319;-46
2024/04/10 09:32:04;;;;;;;;;3.67;3.67;;;;;22.46;49.49;99745.38;6277861;20;2742038;-45
2024/04/10 09:34:33;;;;;;;;;4.00;4.00;;;;;22.91;49.66;99745.88;6309873;20;2747157;-49
2024/04/10 09:37:01;;;;;;;;;2.60;2.60;;;;;22.65;49.85;99752.38;6335059;20;2737888;-46
2024/04/10 09:39:30;;;;;;;;;2.80;2.40;;;;;23.00;48.54;99745.72;6331991;20;2744043;-51
2024/04/10 09:41:59;;;;;;;;;4.20;4.20;;;;;22.46;49.21;99739.00;6333876;20;2753418;-48
2024/04/10 09:44:32;;;;;;;;;5.00;3.20;;;;;22.64;49.64;99745.19;6300079;20;2748215;-48
2024/04/10 09:47:01;;;;;;;;;5.00;3.20;;;;;22.65;49.10;99746.06;6301538;20;2752374;-48
2024/04/10 09:49:48;;;;;;;;;3.00;3.00;;;;;22.64;48.93;99750.66;6299710;20;2745241;-50
2024/04/10 09:52:18;;;;;;;;;3.60;2.80;;;;;22.95;48.54;99742.59;6303005;20;2748225;-47
2024/04/10 09:54:48;;;;;;;;;4.00;4.00;;;;;23.06;48.62;99743.31;6300229;20;2744058;-44
2024/04/10 09:57:18;;;;;;;;;3.40;3.40;;;;;22.93;48.21;99747.44;6333016;20;2755519;-45
2024/04/10 09:59:47;;;;;;;;;3.40;2.00;;;;;22.38;49.22;99739.91;6294733;20;2754536;-44
2024/04/10 10:02:18;;;;;;;;;4.40;4.40;;;;;23.25;48.82;99753.91;6298894;20;2748261;-46
2024/04/10 10:04:46;;;;;;;;;5.67;2.00;;;;;23.27;47.99;99749.09;6276746;20;2752396;-44
2024/04/10 10:07:24;;;;;;;;;5.80;5.80;;;;;22.88;48.59;99747.09;6332122;20;2748242;-45
2024/04/10 10:09:52;;;;;;;;;3.67;3.67;;;;;23.73;47.55;99754.81;6277928;20;2751365;-44
2024/04/10 10:12:27;;;;;;;;;3.60;3.60;;;;;24.01;47.22;99755.19;6332289;20;2752448;-44
2024/04/10 10:15:11;;;;;;;;;5.60;4.60;;;;;23.37;47.53;99757.97;6300868;20;2747195;-44
2024/04/10 10:17:53;;;;;;;;;3.00;3.00;;;;;23.55;47.72;99757.75;6301530;20;2748403;-45
2024/04/10 10:20:21;;;;;;;;;4.00;4.00;;;;;23.21;47.49;99758.84;6301664;20;2745096;-43
2024/04/10 10:23:03;;;;;;;;;4.33;3.00;;;;;23.35;48.10;99768.25;6276798;20;2735704;-44
2024/04/10 10:25:34;;;;;;;;;3.80;3.80;;;;;23.71;47.64;99767.78;6333016;20;2738968;-43
2024/04/10 10:28:09;;;;;;;;;3.60;3.60;;;;;23.78;47.52;99762.50;6301037;20;2743001;-44
2024/04/10 10:30:39;;;;;;;;;4.00;4.00;;;;;23.42;47.28;99769.25;6301921;20;2748257;-44
2024/04/10 10:33:07;;;;;;;;;4.75;4.00;;;;;23.47;47.42;99767.88;6305687;20;2738833;-44
2024/04/10 10:35:36;;;;;;;;;4.40;4.40;;;;;23.62;47.48;99766.97;6299154;20;2746193;-44
2024/04/10 10:38:04;;;;;;;;;3.00;3.00;;;;;23.38;47.49;99765.19;6300011;20;2744169;-44
2024/04/10 10:40:34;;;;;;;;;4.80;3.60;;;;;23.37;47.83;99782.63;6325247;20;1915962;-44
2024/04/10 10:43:05;;;;;;;;;4.40;4.40;;;;;24.00;47.36;99774.56;6332091;20;2751324;-43
2024/04/10 10:45:35;;;;;;;;;2.60;2.60;;;;;23.72;46.85;99766.78;6302521;20;2750314;-46
2024/04/10 10:48:06;;;;;;;;;2.40;2.40;;;;;23.55;47.55;99767.88;6298287;20;2744048;-48
2024/04/10 10:50:34;;;;;;;;;5.20;3.00;;;;;22.90;49.31;99775.13;6302607;20;2746247;-45
2024/04/10 10:53:02;;;;;;;;;7.00;4.00;;;;;23.41;48.25;99774.94;6275338;20;2753432;-44
2024/04/10 10:55:30;;;;;;;;;7.80;5.40;;;;;23.61;47.05;99772.63;6331466;20;2736946;-45
2024/04/10 10:58:06;;;;;;;;;3.40;2.00;;;;;23.04;47.76;99772.75;6329909;20;2737955;-44
2024/04/10 11:00:34;;;;;;;;;3.33;3.33;;;;;23.46;47.43;99780.75;6277868;20;2748226;-44
2024/04/10 11:03:09;;;;;;;;;4.60;4.60;;;;;23.82;47.55;99778.41;6331867;20;2745171;-44
2024/04/10 11:05:38;;;;;;;;;5.40;5.40;;;;;23.78;47.79;99781.69;6330582;20;2748230;-44
2024/04/10 11:08:07;;;;;;;;;6.00;5.00;;;;;23.71;46.85;99789.72;6300232;20;2741028;-45
2024/04/10 11:10:35;;;;;;;;;5.40;4.20;;;;;23.91;46.57;99790.22;6329486;20;2747338;-44
2024/04/10 11:13:07;;;;;;;;;4.60;4.60;;;;;23.81;47.52;99793.16;6300574;20;2738851;-44
2024/04/10 11:15:46;;;;;;;;;5.00;3.80;;;;;23.34;47.46;99799.41;6296598;20;2732620;-43